createdAt,value
2019-05-25T00:01:50.418Z,8.60
2019-05-25T00:04:21.240Z,9.43
2019-05-25T00:06:51.759Z,9.47
2019-05-25T00:09:22.324Z,8.33
2019-05-25T00:11:53.015Z,9.67
2019-05-25T00:14:23.496Z,11.70
2019-05-25T00:16:54.077Z,8.80
2019-05-25T00:19:24.562Z,8.90
2019-05-25T00:21:55.056Z,7.83
2019-05-25T00:24:25.493Z,8.37
2019-05-25T00:26:55.937Z,8.30
2019-05-25T00:29:27.622Z,8.33
2019-05-25T00:31:58.156Z,8.30
2019-05-25T00:34:28.697Z,8.40
2019-05-25T00:36:59.218Z,8.70
2019-05-25T00:39:29.837Z,9.30
2019-05-25T00:42:00.373Z,9.70
2019-05-25T00:44:30.922Z,8.87
2019-05-25T00:47:01.502Z,8.80
2019-05-25T00:49:31.999Z,8.30
2019-05-25T00:52:02.595Z,9.17
2019-05-25T00:54:33.515Z,8.00
2019-05-25T00:57:04.027Z,7.60
2019-05-25T00:59:34.548Z,7.80
2019-05-25T01:02:04.999Z,8.67
2019-05-25T01:04:35.571Z,8.27
2019-05-25T01:07:06.175Z,7.50
2019-05-25T01:09:36.948Z,7.30
2019-05-25T01:12:07.511Z,7.70
2019-05-25T01:14:38.078Z,7.37
2019-05-25T01:17:08.729Z,8.57
2019-05-25T01:19:39.580Z,7.30
2019-05-25T01:22:10.094Z,7.90
2019-05-25T01:24:44.711Z,7.50
2019-05-25T01:27:14.759Z,8.40
2019-05-25T01:29:45.273Z,8.20
2019-05-25T01:32:15.793Z,8.50
2019-05-25T01:34:46.349Z,7.60
2019-05-25T01:37:16.819Z,8.77
2019-05-25T01:39:47.298Z,8.97
2019-05-25T01:42:17.825Z,8.93
2019-05-25T01:44:48.364Z,8.20
2019-05-25T01:47:18.901Z,9.50
2019-05-25T01:49:49.423Z,10.13
2019-05-25T01:52:20.115Z,9.37
2019-05-25T01:54:59.472Z,11.57
2019-05-25T01:57:22.814Z,14.03
2019-05-25T01:59:53.427Z,13.17
2019-05-25T02:02:24.276Z,13.83
2019-05-25T02:04:55.013Z,12.60
2019-05-25T02:07:25.537Z,12.90
2019-05-25T02:09:56.157Z,11.90
2019-05-25T02:12:26.734Z,10.50
2019-05-25T02:14:57.295Z,10.60
2019-05-25T02:17:27.805Z,11.67
2019-05-25T02:19:58.315Z,10.53
2019-05-25T02:22:28.865Z,11.53
2019-05-25T02:25:16.023Z,12.10
2019-05-25T02:27:31.585Z,11.10
2019-05-25T02:30:02.346Z,9.77
2019-05-25T02:32:32.976Z,9.20
2019-05-25T02:35:03.526Z,9.90
2019-05-25T02:37:34.050Z,9.20
2019-05-25T02:40:05.252Z,10.70
2019-05-25T02:42:35.774Z,9.07
2019-05-25T02:45:06.759Z,9.43
2019-05-25T02:47:37.356Z,9.13
2019-05-25T02:50:08.125Z,8.70
2019-05-25T02:52:38.623Z,8.60
2019-05-25T02:55:12.042Z,9.73
2019-05-25T02:57:42.532Z,8.40
2019-05-25T03:00:13.762Z,8.90
2019-05-25T03:02:44.384Z,8.33
2019-05-25T03:05:15.775Z,8.10
2019-05-25T03:07:48.137Z,6.90
2019-05-25T03:10:18.825Z,8.10
2019-05-25T03:12:49.501Z,7.83
2019-05-25T03:15:19.977Z,8.33
2019-05-25T03:17:50.498Z,8.20
2019-05-25T03:20:21.154Z,8.30
2019-05-25T03:22:51.625Z,8.77
2019-05-25T03:25:22.093Z,8.47
2019-05-25T03:27:53.779Z,9.07
2019-05-25T03:30:34.652Z,8.50
2019-05-25T03:33:05.467Z,9.00
2019-05-25T03:35:36.017Z,8.63
2019-05-25T03:38:06.592Z,8.43
2019-05-25T03:40:37.034Z,10.13
2019-05-25T03:43:09.497Z,9.70
2019-05-25T03:45:40.020Z,9.57
2019-05-25T03:48:10.591Z,9.13
2019-05-25T03:50:41.111Z,10.57
2019-05-25T03:53:11.681Z,10.93
2019-05-25T03:55:42.190Z,10.97
2019-05-25T03:58:12.689Z,11.53
2019-05-25T04:00:43.276Z,11.60
2019-05-25T04:03:13.779Z,10.20
2019-05-25T04:05:44.176Z,9.70
2019-05-25T04:08:14.761Z,10.00
2019-05-25T04:10:46.209Z,9.53
2019-05-25T04:13:16.731Z,10.40
2019-05-25T04:15:47.278Z,9.60
2019-05-25T04:18:17.791Z,9.13
2019-05-25T04:20:48.377Z,8.70
2019-05-25T04:23:18.902Z,9.70
2019-05-25T04:25:49.379Z,9.73
2019-05-25T04:28:19.953Z,10.00
2019-05-25T04:30:50.517Z,9.60
2019-05-25T04:33:21.066Z,10.10
2019-05-25T04:35:51.635Z,10.30
2019-05-25T04:38:22.163Z,9.53
2019-05-25T04:40:52.781Z,9.57
2019-05-25T04:43:23.353Z,9.80
2019-05-25T04:45:55.673Z,9.77
2019-05-25T04:48:26.141Z,10.13
2019-05-25T04:50:56.686Z,9.53
2019-05-25T04:53:27.129Z,10.17
2019-05-25T04:55:57.701Z,10.43
2019-05-25T04:58:28.307Z,9.33
2019-05-25T05:00:58.963Z,10.43
2019-05-25T05:03:29.480Z,10.20
2019-05-25T05:06:00.041Z,10.90
2019-05-25T05:08:30.520Z,10.93
2019-05-25T05:11:01.020Z,11.23
2019-05-25T05:13:32.709Z,11.07
2019-05-25T05:16:03.503Z,9.00
2019-05-25T05:18:33.962Z,10.97
2019-05-25T05:21:04.574Z,10.60
2019-05-25T05:23:35.075Z,10.90
2019-05-25T05:26:05.874Z,10.90
2019-05-25T05:28:36.431Z,11.13
2019-05-25T05:31:22.477Z,10.20
2019-05-25T05:33:39.240Z,10.40
2019-05-25T05:36:10.840Z,9.60
2019-05-25T05:38:42.350Z,10.57
2019-05-25T05:41:13.413Z,9.50
2019-05-25T05:43:45.460Z,9.90
2019-05-25T05:46:18.331Z,9.30
2019-05-25T05:48:51.426Z,10.47
2019-05-25T05:51:22.130Z,9.80
2019-05-25T05:53:56.249Z,9.90
2019-05-25T05:56:26.678Z,9.70
2019-05-25T05:58:57.237Z,9.73
2019-05-25T06:01:27.745Z,9.87
2019-05-25T06:03:58.370Z,9.33
2019-05-25T06:06:28.928Z,10.00
2019-05-25T06:08:59.450Z,9.90
2019-05-25T06:11:30.078Z,10.97
2019-05-25T06:14:00.951Z,10.83
2019-05-25T06:16:31.422Z,9.93
2019-05-25T06:19:01.918Z,10.33
2019-05-25T06:21:32.531Z,9.90
2019-05-25T06:24:03.384Z,9.23
2019-05-25T06:26:33.961Z,9.53
2019-05-25T06:29:04.663Z,9.93
2019-05-25T06:31:35.229Z,10.23
2019-05-25T06:34:05.880Z,10.33
2019-05-25T06:36:37.266Z,10.40
2019-05-25T06:39:08.628Z,10.10
2019-05-25T06:41:39.141Z,10.87
2019-05-25T06:44:09.787Z,10.30
2019-05-25T06:46:40.390Z,9.80
2019-05-25T06:49:10.933Z,9.37
2019-05-25T06:51:41.543Z,10.07
2019-05-25T06:54:12.138Z,10.20
2019-05-25T06:56:42.785Z,9.70
2019-05-25T06:59:13.654Z,9.77
2019-05-25T07:01:44.216Z,10.40
2019-05-25T07:04:15.484Z,10.10
2019-05-25T07:06:46.313Z,9.93
2019-05-25T07:09:16.969Z,8.17
2019-05-25T07:11:47.606Z,10.03
2019-05-25T07:14:18.306Z,10.13
2019-05-25T07:16:48.879Z,10.57
2019-05-25T07:19:21.054Z,10.00
2019-05-25T07:21:51.702Z,10.47
2019-05-25T07:24:22.292Z,11.37
2019-05-25T07:26:53.217Z,10.50
2019-05-25T07:29:23.855Z,9.93
2019-05-25T07:31:54.536Z,10.33
2019-05-25T07:34:25.776Z,10.03
2019-05-25T07:36:56.302Z,11.13
2019-05-25T07:39:26.908Z,9.67
2019-05-25T07:41:57.514Z,10.07
2019-05-25T07:44:28.064Z,9.63
2019-05-25T07:46:58.547Z,9.50
2019-05-25T07:49:29.151Z,10.03
2019-05-25T07:52:02.667Z,9.87
2019-05-25T07:54:31.938Z,9.10
2019-05-25T07:57:02.503Z,8.67
2019-05-25T07:59:33.069Z,9.33
2019-05-25T08:02:03.672Z,9.73
2019-05-25T08:04:34.275Z,10.27
2019-05-25T08:07:04.894Z,10.20
2019-05-25T08:09:35.375Z,9.80
2019-05-25T08:12:05.947Z,9.83
2019-05-25T08:14:36.503Z,10.60
2019-05-25T08:17:07.010Z,8.77
2019-05-25T08:19:37.575Z,8.97
2019-05-25T08:22:08.256Z,9.07
2019-05-25T08:24:38.869Z,8.97
2019-05-25T08:27:09.380Z,9.47
2019-05-25T08:29:39.930Z,8.53
2019-05-25T08:32:10.579Z,9.20
2019-05-25T08:34:41.179Z,8.77
2019-05-25T08:37:11.719Z,8.33
2019-05-25T08:39:42.305Z,10.20
2019-05-25T08:42:12.951Z,9.40
2019-05-25T08:44:43.467Z,9.57
2019-05-25T08:47:15.298Z,8.80
2019-05-25T08:49:45.788Z,8.33
2019-05-25T08:52:16.505Z,8.00
2019-05-25T08:54:47.130Z,8.90
2019-05-25T08:57:18.682Z,8.23
2019-05-25T08:59:49.291Z,8.67
2019-05-25T09:02:19.863Z,8.37
2019-05-25T09:04:50.387Z,8.40
2019-05-25T09:07:20.911Z,8.33
2019-05-25T09:09:51.603Z,9.07
2019-05-25T09:12:22.113Z,8.70
2019-05-25T09:14:52.766Z,8.17
2019-05-25T09:17:23.384Z,7.30
2019-05-25T09:19:53.860Z,7.37
2019-05-25T09:22:24.429Z,7.00
2019-05-25T09:24:55.029Z,7.37
2019-05-25T09:27:25.555Z,7.07
2019-05-25T09:29:56.047Z,8.00
2019-05-25T09:32:26.842Z,7.10
2019-05-25T09:34:57.356Z,7.63
2019-05-25T09:37:28.068Z,7.20
2019-05-25T09:39:58.627Z,7.13
2019-05-25T09:42:29.103Z,6.63
2019-05-25T09:44:59.648Z,6.47
2019-05-25T09:47:30.594Z,6.67
2019-05-25T09:50:01.152Z,6.33
2019-05-25T09:52:32.016Z,8.13
2019-05-25T09:55:02.578Z,8.33
2019-05-25T09:57:33.085Z,8.10
2019-05-25T10:00:03.780Z,7.07
2019-05-25T10:02:34.304Z,8.13
2019-05-25T10:05:05.047Z,7.83
2019-05-25T10:07:35.577Z,8.10
2019-05-25T10:10:06.752Z,8.80
2019-05-25T10:12:37.293Z,8.27
2019-05-25T10:15:08.308Z,9.10
2019-05-25T10:17:38.886Z,8.63
2019-05-25T10:20:09.986Z,8.53
2019-05-25T10:22:40.501Z,9.60
2019-05-25T10:25:11.124Z,8.23
2019-05-25T10:27:41.713Z,8.83
2019-05-25T10:30:12.602Z,8.87
2019-05-25T10:32:44.113Z,8.63
2019-05-25T10:35:14.921Z,8.93
2019-05-25T10:37:45.517Z,8.30
2019-05-25T10:40:16.366Z,8.00
2019-05-25T10:42:47.008Z,8.23
2019-05-25T10:45:19.822Z,8.20
2019-05-25T10:47:50.436Z,7.90
2019-05-25T10:50:21.125Z,6.70
2019-05-25T10:52:51.645Z,6.27
2019-05-25T10:55:22.282Z,6.30
2019-05-25T10:57:52.803Z,6.10
2019-05-25T11:00:23.605Z,5.20
2019-05-25T11:02:54.150Z,6.10
2019-05-25T11:05:24.873Z,5.83
2019-05-25T11:07:55.422Z,5.43
2019-05-25T11:10:26.230Z,5.00
2019-05-25T11:12:56.973Z,4.70
2019-05-25T11:15:27.494Z,4.80
2019-05-25T11:18:00.028Z,4.40
2019-05-25T11:20:30.540Z,5.43
2019-05-25T11:23:01.193Z,4.33
2019-05-25T11:25:31.729Z,4.83
2019-05-25T11:28:02.199Z,4.90
2019-05-25T11:30:32.767Z,4.33
2019-05-25T11:33:03.669Z,4.10
2019-05-25T11:35:34.256Z,5.93
2019-05-25T11:38:04.845Z,4.53
2019-05-25T11:40:35.386Z,4.70
2019-05-25T11:43:05.940Z,4.40
2019-05-25T11:45:36.677Z,4.70
2019-05-25T11:48:07.302Z,5.50
2019-05-25T11:50:37.807Z,4.80
2019-05-25T11:53:08.338Z,5.00
2019-05-25T11:55:38.870Z,4.73
2019-05-25T11:58:09.417Z,5.10
2019-05-25T12:00:40.261Z,4.23
2019-05-25T12:03:10.758Z,4.70
2019-05-25T12:05:41.233Z,4.70
2019-05-25T12:08:11.938Z,4.87
2019-05-25T12:10:42.602Z,3.77
2019-05-25T12:13:14.520Z,2.93
2019-05-25T12:15:45.399Z,4.50
2019-05-25T12:18:15.955Z,4.17
2019-05-25T12:20:46.727Z,3.87
2019-05-25T12:23:18.350Z,4.63
2019-05-25T12:25:48.905Z,4.80
2019-05-25T12:28:19.704Z,5.83
2019-05-25T12:30:50.247Z,6.77
2019-05-25T12:33:20.727Z,12.83
2019-05-25T12:35:51.420Z,26.07
2019-05-25T12:38:21.885Z,24.27
2019-05-25T12:40:54.111Z,33.27
2019-05-25T12:43:24.783Z,39.90
2019-05-25T12:45:55.362Z,30.67
2019-05-25T12:48:25.770Z,34.07
2019-05-25T12:50:56.323Z,10.50
2019-05-25T12:53:26.817Z,6.30
2019-05-25T12:55:57.291Z,3.93
2019-05-25T12:58:27.867Z,3.80
2019-05-25T13:00:58.301Z,3.70
2019-05-25T13:03:28.771Z,5.87
2019-05-25T13:05:59.324Z,14.37
2019-05-25T13:08:29.799Z,26.50
2019-05-25T13:11:00.319Z,31.47
2019-05-25T13:13:30.825Z,18.77
2019-05-25T13:16:01.605Z,20.57
2019-05-25T13:18:32.124Z,30.37
2019-05-25T13:21:02.674Z,33.10
2019-05-25T13:23:33.227Z,23.80
2019-05-25T13:26:03.770Z,12.97
2019-05-25T13:28:34.253Z,7.50
2019-05-25T13:31:11.853Z,5.23
2019-05-25T13:33:37.121Z,6.30
2019-05-25T13:36:07.647Z,4.93
2019-05-25T13:38:38.249Z,7.33
2019-05-25T13:41:08.721Z,6.30
2019-05-25T13:43:39.212Z,6.17
2019-05-25T13:46:09.733Z,6.03
2019-05-25T13:48:40.385Z,5.40
2019-05-25T13:51:10.941Z,4.77
2019-05-25T13:53:41.455Z,6.73
2019-05-25T13:56:11.971Z,5.10
2019-05-25T13:58:42.503Z,5.80
2019-05-25T14:01:27.452Z,5.73
2019-05-25T14:03:45.138Z,6.53
2019-05-25T14:06:15.714Z,6.57
2019-05-25T14:08:46.227Z,7.73
2019-05-25T14:11:16.793Z,7.77
2019-05-25T14:13:47.271Z,7.83
2019-05-25T14:16:17.819Z,8.40
2019-05-25T14:18:48.338Z,7.20
2019-05-25T14:21:18.817Z,7.40
2019-05-25T14:23:49.490Z,6.10
2019-05-25T14:26:19.935Z,5.60
2019-05-25T14:28:50.493Z,4.80
2019-05-25T14:31:21.007Z,5.03
2019-05-25T14:33:51.530Z,4.00
2019-05-25T14:36:22.035Z,3.60
2019-05-25T14:38:52.667Z,4.70
2019-05-25T14:41:23.190Z,3.63
2019-05-25T14:43:53.708Z,3.90
2019-05-25T14:46:27.687Z,3.87
2019-05-25T14:48:56.459Z,4.17
2019-05-25T14:51:27.283Z,3.63
2019-05-25T14:53:57.925Z,3.03
2019-05-25T14:56:28.443Z,2.53
2019-05-25T14:58:58.941Z,3.00
2019-05-25T15:01:29.574Z,3.00
2019-05-25T15:04:00.071Z,2.63
2019-05-25T15:06:30.539Z,1.60
2019-05-25T15:09:01.046Z,1.73
2019-05-25T15:11:31.539Z,1.40
2019-05-25T15:14:01.988Z,1.47
2019-05-25T15:16:32.517Z,1.73
2019-05-25T15:19:03.068Z,2.07
2019-05-25T15:21:36.748Z,3.53
2019-05-25T15:24:07.375Z,3.33
2019-05-25T15:26:38.200Z,3.27
2019-05-25T15:29:11.268Z,2.93
2019-05-25T15:31:40.992Z,2.50
2019-05-25T15:34:11.537Z,2.17
2019-05-25T15:36:42.065Z,2.50
2019-05-25T15:39:12.665Z,3.10
2019-05-25T15:41:43.131Z,3.03
2019-05-25T15:44:13.614Z,2.40
2019-05-25T15:46:44.192Z,2.70
2019-05-25T15:49:14.662Z,3.90
2019-05-25T15:51:45.547Z,3.50
2019-05-25T15:54:15.985Z,4.10
2019-05-25T15:56:46.482Z,3.73
2019-05-25T15:59:17.074Z,3.77
2019-05-25T16:01:49.226Z,3.30
2019-05-25T16:04:19.769Z,4.20
2019-05-25T16:06:50.395Z,4.10
2019-05-25T16:09:21.214Z,4.10
2019-05-25T16:11:51.715Z,5.03
2019-05-25T16:14:22.162Z,8.47
2019-05-25T16:16:52.730Z,8.60
2019-05-25T16:19:23.479Z,8.77
2019-05-25T16:21:53.976Z,4.33
2019-05-25T16:24:24.502Z,3.80
2019-05-25T16:26:55.049Z,3.73
2019-05-25T16:29:25.559Z,4.67
2019-05-25T16:31:56.048Z,3.33
2019-05-25T16:34:26.569Z,3.37
2019-05-25T16:36:57.164Z,2.50
2019-05-25T16:39:27.656Z,4.00
2019-05-25T16:41:58.500Z,3.13
2019-05-25T16:44:28.977Z,3.57
2019-05-25T16:46:59.380Z,3.07
2019-05-25T16:49:29.892Z,3.40
2019-05-25T16:52:00.534Z,3.13
2019-05-25T16:54:31.043Z,3.07
2019-05-25T16:57:01.566Z,2.03
2019-05-25T16:59:31.995Z,2.30
2019-05-25T17:02:02.809Z,2.67
2019-05-25T17:04:33.275Z,2.70
2019-05-25T17:07:03.855Z,3.23
2019-05-25T17:09:34.454Z,3.97
2019-05-25T17:12:05.077Z,4.10
2019-05-25T17:14:36.001Z,3.60
2019-05-25T17:17:06.973Z,3.60
2019-05-25T17:19:37.488Z,3.97
2019-05-25T17:22:08.028Z,3.80
2019-05-25T17:24:38.562Z,3.90
2019-05-25T17:27:09.057Z,3.50
2019-05-25T17:29:39.632Z,3.37
2019-05-25T17:32:10.123Z,3.93
2019-05-25T17:34:40.623Z,3.87
2019-05-25T17:37:11.169Z,4.07
2019-05-25T17:39:42.070Z,3.20
2019-05-25T17:42:12.534Z,3.47
2019-05-25T17:44:43.039Z,3.20
2019-05-25T17:47:13.651Z,3.60
2019-05-25T17:49:44.123Z,3.53
2019-05-25T17:52:14.725Z,3.67
2019-05-25T17:54:46.084Z,3.37
2019-05-25T17:57:16.585Z,3.87
2019-05-25T17:59:47.373Z,3.57
2019-05-25T18:02:17.915Z,3.80
2019-05-25T18:04:48.441Z,4.20
2019-05-25T18:07:18.816Z,3.83
2019-05-25T18:09:49.369Z,3.63
2019-05-25T18:12:20.089Z,3.73
2019-05-25T18:14:52.571Z,3.97
2019-05-25T18:17:23.070Z,3.50
2019-05-25T18:19:53.503Z,3.80
2019-05-25T18:22:25.061Z,3.40
2019-05-25T18:24:55.684Z,3.63
2019-05-25T18:27:26.239Z,3.60
2019-05-25T18:29:58.106Z,4.00
2019-05-25T18:32:28.911Z,3.60
2019-05-25T18:34:59.799Z,3.77
2019-05-25T18:37:30.329Z,4.00
2019-05-25T18:40:00.892Z,3.53
2019-05-25T18:42:31.707Z,3.63
2019-05-25T18:45:02.429Z,3.47
2019-05-25T18:47:33.681Z,4.10
2019-05-25T18:50:05.101Z,3.90
2019-05-25T18:52:35.574Z,4.80
2019-05-25T18:55:07.239Z,4.13
2019-05-25T18:57:37.855Z,4.10
2019-05-25T19:00:09.983Z,3.67
2019-05-25T19:02:41.452Z,4.10
2019-05-25T19:05:14.404Z,3.27
2019-05-25T19:07:45.285Z,3.57
2019-05-25T19:10:15.896Z,4.27
2019-05-25T19:12:46.380Z,4.00
2019-05-25T19:15:17.086Z,3.70
2019-05-25T19:17:47.622Z,4.53
2019-05-25T19:20:21.081Z,4.03
2019-05-25T19:22:50.651Z,4.57
2019-05-25T19:25:21.196Z,4.37
2019-05-25T19:27:51.701Z,4.10
2019-05-25T19:30:22.446Z,4.47
2019-05-25T19:32:52.898Z,4.53
2019-05-25T19:35:23.324Z,4.40
2019-05-25T19:37:54.041Z,4.13
2019-05-25T19:40:24.677Z,5.07
2019-05-25T19:42:56.323Z,4.67
2019-05-25T19:45:27.225Z,4.07
2019-05-25T19:47:57.721Z,4.67
2019-05-25T19:50:28.491Z,4.73
2019-05-25T19:52:58.967Z,5.53
2019-05-25T19:55:29.808Z,5.10
2019-05-25T19:58:00.329Z,5.37
2019-05-25T20:00:30.845Z,5.00
2019-05-25T20:03:01.420Z,5.10
2019-05-25T20:05:32.041Z,4.80
2019-05-25T20:08:02.591Z,5.30
2019-05-25T20:10:33.189Z,5.83
2019-05-25T20:13:03.688Z,5.47
2019-05-25T20:15:34.174Z,5.83
2019-05-25T20:18:04.686Z,5.83
2019-05-25T20:20:35.195Z,5.13
2019-05-25T20:23:06.124Z,6.33
2019-05-25T20:25:36.505Z,5.70
2019-05-25T20:28:07.071Z,5.60
2019-05-25T20:30:37.602Z,5.37
2019-05-25T20:33:08.491Z,5.50
2019-05-25T20:35:39.022Z,5.27
2019-05-25T20:38:09.510Z,4.93
2019-05-25T20:40:40.030Z,4.50
2019-05-25T20:43:10.553Z,4.60
2019-05-25T20:45:41.103Z,5.47
2019-05-25T20:48:11.666Z,4.73
2019-05-25T20:50:42.549Z,4.90
2019-05-25T20:53:13.550Z,4.47
2019-05-25T20:55:44.436Z,4.57
2019-05-25T20:58:14.997Z,5.43
2019-05-25T21:00:45.509Z,5.33
2019-05-25T21:03:15.961Z,4.73
2019-05-25T21:05:50.663Z,5.17
2019-05-25T21:08:18.708Z,5.00
2019-05-25T21:10:49.247Z,5.30
2019-05-25T21:13:19.763Z,5.60
2019-05-25T21:15:50.285Z,5.63
2019-05-25T21:18:21.106Z,6.10
2019-05-25T21:20:51.643Z,6.60
2019-05-25T21:23:22.180Z,5.70
2019-05-25T21:25:52.711Z,5.83
2019-05-25T21:28:23.250Z,5.63
2019-05-25T21:30:53.771Z,5.93
2019-05-25T21:33:24.273Z,6.90
2019-05-25T21:36:07.686Z,6.67
2019-05-25T21:38:27.133Z,6.20
2019-05-25T21:40:57.964Z,6.83
2019-05-25T21:43:28.575Z,6.60
2019-05-25T21:45:59.416Z,7.10
2019-05-25T21:48:29.866Z,7.90
2019-05-25T21:51:00.435Z,6.90
2019-05-25T21:53:30.973Z,7.23
2019-05-25T21:56:01.419Z,7.07
2019-05-25T21:58:32.468Z,6.93
2019-05-25T22:01:03.063Z,6.83
2019-05-25T22:03:33.610Z,7.20
2019-05-25T22:06:04.114Z,7.87
2019-05-25T22:08:34.626Z,7.80
2019-05-25T22:11:05.158Z,7.27
2019-05-25T22:13:35.667Z,7.37
2019-05-25T22:16:06.231Z,7.80
2019-05-25T22:18:36.781Z,8.13
2019-05-25T22:21:07.362Z,8.47
2019-05-25T22:23:37.915Z,8.43
2019-05-25T22:26:08.401Z,7.47
2019-05-25T22:28:44.980Z,8.47
2019-05-25T22:31:11.030Z,6.60
2019-05-25T22:33:41.531Z,7.93
2019-05-25T22:36:12.042Z,8.03
2019-05-25T22:38:42.572Z,6.80
2019-05-25T22:41:13.091Z,7.43
2019-05-25T22:43:43.611Z,6.43
2019-05-25T22:46:14.134Z,6.30
2019-05-25T22:48:44.667Z,7.50
2019-05-25T22:51:15.189Z,7.40
2019-05-25T22:53:45.663Z,7.17
2019-05-25T22:56:16.212Z,7.03
2019-05-25T22:58:46.747Z,7.10
2019-05-25T23:01:17.406Z,6.53
2019-05-25T23:03:47.942Z,7.40
2019-05-25T23:06:18.457Z,6.70
2019-05-25T23:08:49.032Z,6.93
2019-05-25T23:11:19.544Z,6.90
2019-05-25T23:13:50.117Z,7.53
2019-05-25T23:16:20.557Z,7.70
2019-05-25T23:18:51.357Z,7.60
2019-05-25T23:21:21.995Z,6.57
2019-05-25T23:23:52.554Z,6.90
2019-05-25T23:26:23.050Z,6.87
2019-05-25T23:28:53.504Z,7.40
2019-05-25T23:31:24.055Z,7.00
2019-05-25T23:33:54.612Z,7.40
2019-05-25T23:36:25.212Z,7.60
2019-05-25T23:38:55.745Z,7.10
2019-05-25T23:41:26.210Z,7.90
2019-05-25T23:43:59.825Z,8.17
2019-05-25T23:46:28.941Z,8.00
2019-05-25T23:48:59.706Z,7.60
2019-05-25T23:51:30.228Z,7.50
2019-05-25T23:54:00.738Z,7.83
2019-05-25T23:56:31.236Z,7.40
2019-05-25T23:59:01.719Z,7.70
